createdAt,value
2024-04-26T00:02:26.730Z,17.90
2024-04-26T00:04:57.043Z,17.90
2024-04-26T00:07:29.336Z,17.80
2024-04-26T00:09:59.590Z,17.90
2024-04-26T00:12:29.617Z,17.90
2024-04-26T00:15:02.404Z,17.80
2024-04-26T00:17:32.503Z,17.90
2024-04-26T00:20:02.500Z,17.90
2024-04-26T00:22:32.606Z,17.80
2024-04-26T00:25:02.627Z,17.90
2024-04-26T00:27:32.701Z,17.80
2024-04-26T00:30:05.327Z,17.80
2024-04-26T00:32:35.550Z,17.80
2024-04-26T00:35:05.678Z,17.80
2024-04-26T00:37:35.686Z,17.80
2024-04-26T00:40:05.779Z,17.90
2024-04-26T00:42:35.714Z,17.90
2024-04-26T00:45:08.885Z,17.80
2024-04-26T00:47:39.410Z,17.90
2024-04-26T00:50:10.652Z,17.80
2024-04-26T00:52:41.070Z,17.80
2024-04-26T00:55:13.657Z,17.80
2024-04-26T00:57:44.203Z,17.80
2024-04-26T01:00:17.888Z,17.80
2024-04-26T01:02:48.174Z,17.80
2024-04-26T01:05:18.532Z,17.80
2024-04-26T01:07:48.597Z,17.80
2024-04-26T01:10:18.839Z,17.80
2024-04-26T01:12:49.335Z,17.80
2024-04-26T01:15:22.167Z,17.80
2024-04-26T01:17:52.393Z,17.80
2024-04-26T01:20:22.495Z,17.80
2024-04-26T01:22:54.379Z,17.80
2024-04-26T01:25:27.357Z,17.80
2024-04-26T01:27:57.360Z,17.80
2024-04-26T01:30:27.326Z,17.80
2024-04-26T01:32:57.331Z,17.80
2024-04-26T01:35:27.379Z,17.80
2024-04-26T01:37:57.426Z,17.80
2024-04-26T01:40:30.041Z,17.80
2024-04-26T01:43:00.004Z,17.80
2024-04-26T01:45:30.117Z,17.80
2024-04-26T01:48:00.366Z,17.80
2024-04-26T01:50:30.443Z,17.80
2024-04-26T01:53:00.524Z,17.80
2024-04-26T01:55:33.430Z,17.80
2024-04-26T01:58:00.893Z,17.80
2024-04-26T02:00:30.925Z,17.80
2024-04-26T02:02:58.687Z,17.80
2024-04-26T02:05:28.912Z,17.80
2024-04-26T02:07:56.359Z,17.80
2024-04-26T02:10:26.369Z,17.80
2024-04-26T02:12:56.782Z,17.80
2024-04-26T02:15:26.838Z,17.80
2024-04-26T02:17:54.534Z,17.80
2024-04-26T02:20:24.646Z,17.80
2024-04-26T02:22:54.784Z,17.80
2024-04-26T02:25:25.278Z,17.80
2024-04-26T02:27:55.268Z,17.80
2024-04-26T02:30:27.831Z,17.80
2024-04-26T02:32:59.727Z,17.80
2024-04-26T02:35:30.112Z,17.80
2024-04-26T02:38:00.636Z,17.80
2024-04-26T02:40:30.987Z,17.80
2024-04-26T02:43:02.588Z,17.80
2024-04-26T02:45:35.236Z,17.80
2024-04-26T02:48:05.376Z,17.80
2024-04-26T02:50:35.458Z,17.80
2024-04-26T02:53:06.702Z,17.80
2024-04-26T02:55:36.674Z,17.80
2024-04-26T02:58:06.764Z,17.80
2024-04-26T03:00:39.414Z,17.80
2024-04-26T03:03:09.515Z,17.70
2024-04-26T03:05:39.563Z,17.80
2024-04-26T03:08:10.411Z,17.80
2024-04-26T03:10:40.435Z,17.80
2024-04-26T03:13:10.598Z,17.80
2024-04-26T03:15:43.224Z,17.80
2024-04-26T03:18:13.475Z,17.80
2024-04-26T03:20:43.570Z,17.80
2024-04-26T03:23:13.565Z,17.80
2024-04-26T03:25:43.510Z,17.70
2024-04-26T03:28:14.935Z,17.70
2024-04-26T03:30:48.140Z,17.70
2024-04-26T03:33:18.285Z,17.70
2024-04-26T03:35:48.362Z,17.70
2024-04-26T03:38:18.380Z,17.70
2024-04-26T03:40:48.377Z,17.70
2024-04-26T03:43:18.669Z,17.70
2024-04-26T03:45:51.242Z,17.70
2024-04-26T03:48:21.403Z,17.70
2024-04-26T03:50:51.567Z,17.70
2024-04-26T03:53:21.758Z,17.70
2024-04-26T03:55:52.205Z,17.70
2024-04-26T03:58:22.193Z,17.70
2024-04-26T04:00:54.836Z,17.70
2024-04-26T04:03:25.044Z,17.70
2024-04-26T04:05:55.225Z,17.70
2024-04-26T04:08:25.321Z,17.70
2024-04-26T04:10:55.445Z,17.70
2024-04-26T04:13:25.539Z,17.70
2024-04-26T04:15:58.233Z,17.70
2024-04-26T04:18:28.956Z,17.70
2024-04-26T04:20:59.134Z,17.70
2024-04-26T04:23:29.251Z,17.70
2024-04-26T04:25:59.292Z,17.70
2024-04-26T04:28:29.256Z,17.70
2024-04-26T04:31:01.884Z,17.70
2024-04-26T04:33:32.393Z,17.70
2024-04-26T04:36:02.844Z,17.70
2024-04-26T04:38:32.932Z,17.70
2024-04-26T04:41:02.936Z,17.70
2024-04-26T04:43:32.922Z,17.70
2024-04-26T04:46:05.576Z,17.70
2024-04-26T04:48:35.727Z,17.70
2024-04-26T04:51:05.874Z,17.70
2024-04-26T04:53:38.971Z,17.70
2024-04-26T04:56:09.951Z,17.70
2024-04-26T04:58:39.979Z,17.70
2024-04-26T05:01:12.548Z,17.70
2024-04-26T05:03:42.784Z,17.70
2024-04-26T05:06:13.050Z,17.70
2024-04-26T05:08:43.175Z,17.70
2024-04-26T05:11:13.207Z,17.70
2024-04-26T05:13:43.194Z,17.70
2024-04-26T05:16:15.800Z,17.70
2024-04-26T05:18:45.981Z,17.70
2024-04-26T05:21:16.161Z,17.70
2024-04-26T05:23:46.246Z,17.70
2024-04-26T05:26:16.312Z,17.70
2024-04-26T05:28:46.310Z,17.70
2024-04-26T05:31:18.871Z,17.70
2024-04-26T05:33:49.036Z,17.70
2024-04-26T05:36:19.260Z,17.70
2024-04-26T05:38:49.379Z,17.70
2024-04-26T05:41:19.439Z,17.70
2024-04-26T05:43:49.977Z,17.70
2024-04-26T05:46:22.604Z,17.70
2024-04-26T05:48:52.727Z,17.70
2024-04-26T05:51:23.056Z,17.70
2024-04-26T05:53:55.329Z,17.70
2024-04-26T05:56:25.486Z,17.70
2024-04-26T05:58:55.523Z,17.70
2024-04-26T06:01:28.074Z,17.70
2024-04-26T06:03:58.127Z,17.70
2024-04-26T06:06:28.435Z,17.70
2024-04-26T06:08:58.548Z,17.70
2024-04-26T06:11:28.727Z,17.70
2024-04-26T06:13:58.758Z,17.70
2024-04-26T06:16:31.295Z,17.70
2024-04-26T06:19:01.504Z,17.70
2024-04-26T06:21:31.656Z,17.80
2024-04-26T06:24:01.672Z,17.80
2024-04-26T06:26:32.732Z,17.80
2024-04-26T06:29:02.866Z,17.80
2024-04-26T06:31:35.478Z,17.80
2024-04-26T06:34:05.611Z,17.80
2024-04-26T06:36:35.724Z,17.80
2024-04-26T06:39:07.413Z,17.70
2024-04-26T06:41:37.493Z,17.80
2024-04-26T06:44:20.140Z,17.80
2024-04-26T06:46:53.861Z,17.80
2024-04-26T06:49:26.616Z,17.80
2024-04-26T06:51:56.868Z,17.80
2024-04-26T06:54:26.871Z,17.80
2024-04-26T06:56:56.876Z,17.80
2024-04-26T06:59:28.872Z,17.80
2024-04-26T07:02:03.367Z,17.80
2024-04-26T07:04:33.728Z,17.80
2024-04-26T07:07:03.839Z,17.80
2024-04-26T07:09:33.789Z,17.80
2024-04-26T07:12:03.987Z,17.80
2024-04-26T07:14:34.118Z,17.80
2024-04-26T07:17:06.770Z,17.80
2024-04-26T07:19:40.479Z,17.80
2024-04-26T07:22:11.106Z,17.80
2024-04-26T07:24:41.205Z,17.80
2024-04-26T07:27:11.272Z,17.80
2024-04-26T07:29:42.604Z,17.80
2024-04-26T07:32:15.579Z,17.80
2024-04-26T07:34:47.282Z,17.80
2024-04-26T07:37:17.590Z,17.80
2024-04-26T07:39:47.676Z,17.80
2024-04-26T07:42:17.720Z,17.80
2024-04-26T07:44:47.763Z,17.80
2024-04-26T07:47:23.249Z,17.80
2024-04-26T07:49:53.611Z,17.80
2024-04-26T07:52:23.698Z,17.80
2024-04-26T07:54:56.304Z,17.80
2024-04-26T07:57:27.172Z,17.80
2024-04-26T07:59:57.724Z,17.80
2024-04-26T08:02:30.486Z,17.80
2024-04-26T08:05:03.250Z,17.80
2024-04-26T08:07:33.545Z,17.80
2024-04-26T08:10:03.640Z,17.80
2024-04-26T08:12:33.786Z,17.80
2024-04-26T08:15:03.966Z,17.80
2024-04-26T08:17:37.693Z,17.80
2024-04-26T08:20:08.506Z,17.80
2024-04-26T08:22:38.458Z,17.80
2024-04-26T08:25:15.896Z,17.80
2024-04-26T08:27:52.601Z,17.80
2024-04-26T08:30:25.696Z,17.80
2024-04-26T08:33:05.601Z,17.80
2024-04-26T08:35:37.706Z,17.80
2024-04-26T08:38:08.391Z,17.80
2024-04-26T08:40:38.538Z,17.80
2024-04-26T08:43:08.651Z,17.80
2024-04-26T08:45:41.809Z,17.80
2024-04-26T08:48:15.742Z,17.80
2024-04-26T08:50:48.549Z,17.80
2024-04-26T08:53:22.248Z,17.80
2024-04-26T08:55:52.627Z,17.80
2024-04-26T08:58:23.136Z,17.80
2024-04-26T09:00:54.645Z,17.80
2024-04-26T09:03:27.522Z,17.80
2024-04-26T09:05:58.637Z,17.80
2024-04-26T09:08:28.678Z,17.80
2024-04-26T09:10:58.765Z,17.80
2024-04-26T09:13:29.092Z,17.90
2024-04-26T09:15:59.186Z,17.80
2024-04-26T09:18:31.857Z,17.90
2024-04-26T09:21:03.751Z,17.90
2024-04-26T09:23:33.919Z,17.80
2024-04-26T09:26:08.386Z,17.80
2024-04-26T09:28:40.775Z,17.80
2024-04-26T09:31:11.464Z,17.80
2024-04-26T09:33:45.354Z,17.90
2024-04-26T09:36:16.868Z,17.80
2024-04-26T09:38:50.056Z,17.90
2024-04-26T09:41:21.433Z,17.90
2024-04-26T09:43:53.725Z,17.90
2024-04-26T09:46:27.853Z,17.90
2024-04-26T09:49:01.040Z,17.90
2024-04-26T09:51:40.942Z,17.90
2024-04-26T09:54:15.257Z,17.90
2024-04-26T09:56:45.789Z,17.90
2024-04-26T09:59:17.122Z,17.90
2024-04-26T10:01:47.806Z,17.90
2024-04-26T10:04:20.676Z,17.90
2024-04-26T10:06:50.813Z,17.90
2024-04-26T10:09:23.877Z,18.00
2024-04-26T10:11:55.342Z,18.00
2024-04-26T10:14:33.676Z,17.90
2024-04-26T10:17:11.164Z,17.90
2024-04-26T10:19:45.019Z,17.90
2024-04-26T10:22:15.687Z,17.90
2024-04-26T10:24:51.469Z,17.90
2024-04-26T10:27:30.765Z,17.90
2024-04-26T10:30:01.443Z,17.90
2024-04-26T10:32:32.629Z,17.90
2024-04-26T10:35:05.794Z,17.90
2024-04-26T10:37:35.782Z,17.90
2024-04-26T10:40:11.108Z,17.90
2024-04-26T10:42:43.176Z,17.90
2024-04-26T10:45:15.862Z,17.90
2024-04-26T10:47:46.785Z,17.90
2024-04-26T10:50:20.055Z,18.00
2024-04-26T10:52:50.113Z,18.00
2024-04-26T10:55:20.772Z,18.00
2024-04-26T10:57:59.330Z,18.00
2024-04-26T11:00:40.296Z,18.00
2024-04-26T11:03:14.335Z,18.00
2024-04-26T11:05:48.067Z,18.00
2024-04-26T11:08:28.698Z,18.00
2024-04-26T11:10:58.893Z,18.00
2024-04-26T11:13:29.034Z,18.00
2024-04-26T11:15:59.932Z,18.00
2024-04-26T11:18:30.126Z,18.00
2024-04-26T11:21:02.963Z,18.00
2024-04-26T11:23:33.029Z,18.00
2024-04-26T11:26:03.262Z,18.10
2024-04-26T11:28:33.255Z,18.10
2024-04-26T11:31:03.174Z,18.10
2024-04-26T11:33:41.753Z,18.10
2024-04-26T11:36:19.517Z,18.10
2024-04-26T11:38:50.048Z,18.10
2024-04-26T11:41:20.225Z,18.10
2024-04-26T11:43:50.211Z,18.10
2024-04-26T11:46:20.291Z,18.10
2024-04-26T11:48:50.465Z,18.20
2024-04-26T11:51:23.888Z,18.20
2024-04-26T11:53:58.951Z,18.20
2024-04-26T11:56:29.362Z,18.20
2024-04-26T11:59:01.864Z,18.20
2024-04-26T12:01:31.921Z,18.30
2024-04-26T12:04:02.821Z,18.30
2024-04-26T12:06:35.615Z,18.30
2024-04-26T12:09:05.756Z,18.30
2024-04-26T12:11:35.829Z,18.30
2024-04-26T12:14:05.929Z,18.40
2024-04-26T12:16:35.921Z,18.40
2024-04-26T12:19:06.614Z,18.30
2024-04-26T12:21:39.468Z,18.30
2024-04-26T12:24:10.202Z,18.30
2024-04-26T12:26:40.476Z,18.30
2024-04-26T12:29:14.575Z,18.30
2024-04-26T12:31:44.642Z,18.20
2024-04-26T12:34:16.213Z,18.20
2024-04-26T12:36:48.965Z,18.20
2024-04-26T12:39:19.481Z,18.30
2024-04-26T12:41:49.829Z,18.30
2024-04-26T12:44:19.996Z,18.30
2024-04-26T12:46:50.051Z,18.30
2024-04-26T12:49:20.755Z,18.30
2024-04-26T12:51:53.499Z,18.30
2024-04-26T12:54:23.477Z,18.30
2024-04-26T12:56:53.554Z,18.30
2024-04-26T12:59:23.530Z,18.40
2024-04-26T13:01:53.469Z,18.40
2024-04-26T13:04:24.120Z,18.40
2024-04-26T13:06:58.788Z,18.40
2024-04-26T13:09:29.925Z,18.40
2024-04-26T13:12:00.298Z,18.40
2024-04-26T13:14:31.103Z,18.40
2024-04-26T13:17:02.934Z,18.50
2024-04-26T13:19:33.095Z,18.50
2024-04-26T13:22:06.562Z,18.50
2024-04-26T13:24:36.652Z,18.60
2024-04-26T13:27:06.849Z,18.60
2024-04-26T13:29:37.030Z,18.60
2024-04-26T13:32:07.452Z,18.60
2024-04-26T13:34:38.612Z,18.60
2024-04-26T13:37:11.470Z,18.60
2024-04-26T13:39:41.474Z,18.60
2024-04-26T13:42:15.503Z,18.60
2024-04-26T13:44:45.652Z,18.60
2024-04-26T13:47:15.784Z,18.60
2024-04-26T13:49:46.064Z,18.60
2024-04-26T13:52:19.908Z,18.60
2024-04-26T13:54:50.314Z,18.70
2024-04-26T13:57:20.406Z,18.60
2024-04-26T13:59:53.398Z,18.70
2024-04-26T14:02:26.613Z,18.60
2024-04-26T14:04:58.359Z,18.70
2024-04-26T14:07:32.833Z,18.60
2024-04-26T14:10:03.579Z,18.60
2024-04-26T14:12:35.008Z,18.60
2024-04-26T14:15:05.120Z,18.60
2024-04-26T14:17:35.199Z,18.60
2024-04-26T14:20:05.434Z,18.60
2024-04-26T14:22:38.104Z,18.60
2024-04-26T14:25:08.802Z,18.60
2024-04-26T14:27:38.940Z,18.60
2024-04-26T14:30:10.003Z,18.60
2024-04-26T14:32:40.257Z,18.60
2024-04-26T14:35:13.355Z,18.60
2024-04-26T14:37:46.087Z,18.60
2024-04-26T14:40:16.222Z,18.60
2024-04-26T14:42:46.156Z,18.60
2024-04-26T14:45:16.317Z,18.60
2024-04-26T14:47:46.405Z,18.60
2024-04-26T14:50:16.522Z,18.60
2024-04-26T14:52:49.107Z,18.60
2024-04-26T14:55:19.211Z,18.60
2024-04-26T14:57:49.195Z,18.60
2024-04-26T15:00:20.075Z,18.60
2024-04-26T15:02:52.185Z,18.60
2024-04-26T15:05:23.542Z,18.60
2024-04-26T15:07:56.232Z,18.60
2024-04-26T15:10:28.293Z,18.60
2024-04-26T15:12:58.271Z,18.60
2024-04-26T15:15:28.260Z,18.60
2024-04-26T15:17:58.333Z,18.60
2024-04-26T15:20:29.639Z,18.60
2024-04-26T15:23:02.382Z,18.60
2024-04-26T15:25:32.502Z,18.60
2024-04-26T15:28:02.601Z,18.60
2024-04-26T15:30:33.205Z,18.60
2024-04-26T15:33:03.317Z,18.70
2024-04-26T15:35:34.906Z,18.60
2024-04-26T15:38:11.798Z,18.60
2024-04-26T15:40:42.098Z,18.60
2024-04-26T15:43:12.135Z,18.60
2024-04-26T15:45:42.093Z,18.60
2024-04-26T15:48:12.124Z,18.60
2024-04-26T15:50:42.144Z,18.60
2024-04-26T15:53:14.754Z,18.70
2024-04-26T15:55:44.870Z,18.70
2024-04-26T15:58:14.831Z,18.80
2024-04-26T16:00:44.880Z,18.80
2024-04-26T16:03:14.886Z,18.80
2024-04-26T16:05:44.927Z,18.80
2024-04-26T16:08:17.562Z,18.80
2024-04-26T16:10:47.773Z,18.80
2024-04-26T16:13:17.877Z,18.70
2024-04-26T16:15:47.849Z,18.70
2024-04-26T16:18:17.827Z,18.70
2024-04-26T16:20:47.816Z,18.60
2024-04-26T16:23:20.441Z,18.60
2024-04-26T16:25:50.473Z,18.60
2024-04-26T16:28:20.448Z,18.60
2024-04-26T16:30:50.438Z,18.50
2024-04-26T16:33:20.517Z,18.50
2024-04-26T16:35:50.578Z,18.50
2024-04-26T16:38:23.245Z,18.50
2024-04-26T16:40:53.284Z,18.50
2024-04-26T16:43:23.284Z,18.50
2024-04-26T16:45:53.289Z,18.50
2024-04-26T16:48:23.368Z,18.50
2024-04-26T16:50:53.327Z,18.50
2024-04-26T16:53:25.885Z,18.50
2024-04-26T16:55:55.990Z,18.50
2024-04-26T16:58:29.618Z,18.50
2024-04-26T17:01:00.364Z,18.50
2024-04-26T17:03:30.363Z,18.50
2024-04-26T17:06:00.368Z,18.50
2024-04-26T17:08:32.971Z,18.50
2024-04-26T17:11:04.839Z,18.50
2024-04-26T17:13:34.936Z,18.50
2024-04-26T17:16:05.984Z,18.40
2024-04-26T17:18:38.800Z,18.40
2024-04-26T17:21:09.735Z,18.40
2024-04-26T17:23:42.274Z,18.40
2024-04-26T17:26:12.536Z,18.40
2024-04-26T17:28:43.180Z,18.40
2024-04-26T17:31:13.417Z,18.40
2024-04-26T17:33:45.948Z,18.40
2024-04-26T17:36:16.975Z,18.40
2024-04-26T17:38:52.199Z,18.40
2024-04-26T17:41:23.058Z,18.40
2024-04-26T17:43:53.387Z,18.40
2024-04-26T17:46:23.553Z,18.40
2024-04-26T17:48:53.590Z,18.40
2024-04-26T17:51:23.533Z,18.30
2024-04-26T17:53:56.117Z,18.30
2024-04-26T17:56:26.654Z,18.30
2024-04-26T17:58:57.017Z,18.30
2024-04-26T18:01:27.250Z,18.40
2024-04-26T18:03:57.312Z,18.30
2024-04-26T18:06:27.334Z,18.30
2024-04-26T18:09:00.356Z,18.30
2024-04-26T18:11:30.465Z,18.30
2024-04-26T18:14:01.656Z,18.20
2024-04-26T18:16:31.878Z,18.30
2024-04-26T18:19:04.703Z,18.30
2024-04-26T18:21:35.052Z,18.20
2024-04-26T18:24:07.799Z,18.20
2024-04-26T18:26:40.506Z,18.20
2024-04-26T18:29:10.464Z,18.20
2024-04-26T18:31:40.510Z,18.20
2024-04-26T18:34:15.137Z,18.20
2024-04-26T18:36:45.139Z,18.20
2024-04-26T18:39:17.861Z,18.20
2024-04-26T18:41:50.062Z,18.20
2024-04-26T18:44:22.478Z,18.20
2024-04-26T18:46:58.026Z,18.20
2024-04-26T18:49:28.871Z,18.10
2024-04-26T18:51:58.932Z,18.10
2024-04-26T18:54:31.611Z,18.20
2024-04-26T18:56:59.017Z,18.20
2024-04-26T18:59:29.321Z,18.10
2024-04-26T19:02:00.101Z,18.10
2024-04-26T19:04:34.199Z,18.10
2024-04-26T19:07:07.377Z,18.10
2024-04-26T19:09:40.614Z,18.10
2024-04-26T19:12:12.098Z,18.10
2024-04-26T19:14:42.129Z,18.10
2024-04-26T19:17:12.333Z,18.20
2024-04-26T19:19:42.479Z,18.20
2024-04-26T19:22:12.563Z,18.10
2024-04-26T19:24:45.200Z,18.10
2024-04-26T19:27:17.208Z,18.20
2024-04-26T19:29:47.178Z,18.20
2024-04-26T19:32:19.586Z,18.10
2024-04-26T19:34:50.722Z,18.20
2024-04-26T19:37:20.783Z,18.10
2024-04-26T19:39:53.761Z,18.10
2024-04-26T19:42:23.706Z,18.10
2024-04-26T19:44:53.761Z,18.10
2024-04-26T19:47:23.838Z,18.10
2024-04-26T19:49:53.855Z,18.10
2024-04-26T19:52:36.287Z,18.10
2024-04-26T19:55:25.821Z,18.10
2024-04-26T19:57:57.443Z,18.10
2024-04-26T20:00:27.575Z,18.20
2024-04-26T20:02:57.717Z,18.10
2024-04-26T20:05:27.789Z,18.10
2024-04-26T20:07:57.885Z,18.20
2024-04-26T20:10:30.508Z,18.10
2024-04-26T20:13:01.530Z,18.10
2024-04-26T20:15:31.531Z,18.10
2024-04-26T20:18:01.597Z,18.10
2024-04-26T20:20:31.551Z,18.10
2024-04-26T20:23:01.634Z,18.10
2024-04-26T20:25:34.297Z,18.20
2024-04-26T20:28:04.415Z,18.10
2024-04-26T20:30:34.383Z,18.20
2024-04-26T20:33:04.430Z,18.10
2024-04-26T20:35:34.544Z,18.10
2024-04-26T20:38:04.610Z,18.10
2024-04-26T20:40:37.201Z,18.10
2024-04-26T20:43:07.527Z,18.10
2024-04-26T20:45:37.552Z,18.10
2024-04-26T20:48:09.266Z,18.10
2024-04-26T20:50:39.497Z,18.10
2024-04-26T20:53:09.576Z,18.20
2024-04-26T20:55:42.241Z,18.10
2024-04-26T20:58:13.695Z,18.10
2024-04-26T21:00:43.663Z,18.10
2024-04-26T21:03:13.807Z,18.10
2024-04-26T21:05:44.131Z,18.10
2024-04-26T21:08:14.203Z,18.10
2024-04-26T21:10:48.102Z,18.10
2024-04-26T21:13:18.244Z,18.10
2024-04-26T21:15:48.220Z,18.10
2024-04-26T21:18:18.356Z,18.10
2024-04-26T21:20:48.486Z,18.10
2024-04-26T21:23:18.495Z,18.10
2024-04-26T21:25:51.108Z,18.10
2024-04-26T21:28:21.083Z,18.10
2024-04-26T21:30:51.081Z,18.10
2024-04-26T21:33:21.384Z,18.10
2024-04-26T21:35:51.559Z,18.10
2024-04-26T21:38:21.514Z,18.10
2024-04-26T21:40:54.211Z,18.10
2024-04-26T21:43:24.348Z,18.10
2024-04-26T21:45:54.346Z,18.10
2024-04-26T21:48:24.411Z,18.10
2024-04-26T21:50:54.518Z,18.10
2024-04-26T21:53:24.620Z,18.10
2024-04-26T21:55:57.478Z,18.00
2024-04-26T21:58:27.612Z,18.00
2024-04-26T22:00:57.699Z,18.10
2024-04-26T22:03:27.648Z,18.10
2024-04-26T22:05:57.663Z,18.00
2024-04-26T22:08:28.443Z,18.00
2024-04-26T22:11:01.010Z,18.00
2024-04-26T22:13:31.073Z,18.00
2024-04-26T22:16:01.116Z,18.00
2024-04-26T22:18:31.155Z,18.00
2024-04-26T22:21:01.134Z,18.00
2024-04-26T22:23:33.526Z,18.00
2024-04-26T22:26:08.076Z,18.00
2024-04-26T22:28:38.066Z,18.00
2024-04-26T22:31:09.147Z,18.00
2024-04-26T22:33:41.871Z,18.00
2024-04-26T22:36:12.545Z,18.00
2024-04-26T22:38:43.686Z,18.00
2024-04-26T22:41:16.304Z,18.00
2024-04-26T22:43:47.138Z,18.00
2024-04-26T22:46:17.335Z,18.00
2024-04-26T22:48:47.913Z,18.00
2024-04-26T22:51:18.593Z,18.00
2024-04-26T22:53:48.622Z,18.00
2024-04-26T22:56:21.255Z,18.00
2024-04-26T22:58:52.736Z,18.00
2024-04-26T23:01:22.765Z,18.00
2024-04-26T23:03:52.944Z,18.00
2024-04-26T23:06:23.011Z,18.00
2024-04-26T23:08:52.959Z,18.00
2024-04-26T23:11:25.774Z,18.00
2024-04-26T23:13:55.871Z,18.00
2024-04-26T23:16:26.017Z,18.00
2024-04-26T23:18:56.241Z,18.00
2024-04-26T23:21:26.497Z,18.00
2024-04-26T23:23:56.872Z,18.00
2024-04-26T23:26:30.244Z,18.00
2024-04-26T23:29:01.293Z,18.00
2024-04-26T23:31:31.289Z,18.00
2024-04-26T23:34:02.832Z,18.00
2024-04-26T23:36:33.151Z,18.00
2024-04-26T23:39:03.358Z,18.00
2024-04-26T23:41:35.920Z,18.00
2024-04-26T23:44:05.984Z,18.00
2024-04-26T23:46:36.964Z,18.00
2024-04-26T23:49:07.176Z,18.00
2024-04-26T23:51:37.155Z,18.00
2024-04-26T23:54:07.230Z,17.90
2024-04-26T23:56:40.149Z,17.90
2024-04-26T23:59:10.144Z,17.90
